Time;durP1;ratioP1;P1;durP2;ratioP2;P2;SDS_P1;SDS_P2;PMS_P1;PMS_P2;Temp;Humidity;BMP_temperature;BMP_pressure;BME280_temperature;BME280_humidity;BME280_pressure;Samples;Min_cycle;Max_cycle;Signal;HPM_P1;HPM_P2
2023/06/19 00:01:11;;;;;;;;;;;;;;;26.28;41.09;100762.59;5064309;28;19913;-72
2023/06/19 00:03:36;;;;;;;;;;;;;;;26.28;41.16;100766.13;5064053;28;19923;-72
2023/06/19 00:06:01;;;;;;;;;;;;;;;26.28;41.09;100766.13;5070002;28;19913;-72
2023/06/19 00:08:27;;;;;;;;;;;;;;;26.28;41.18;100770.75;5055985;28;19968;-72
2023/06/19 00:10:52;;;;;;;;;;;;;;;26.28;41.21;100768.03;5072635;28;20003;-71
2023/06/19 00:13:18;;;;;;;;;;;;;;;26.27;41.09;100767.19;5064071;28;19913;-72
2023/06/19 00:15:44;;;;;;;;;;;;;;;26.27;41.05;100763.66;5060840;28;19925;-72
2023/06/19 00:18:09;;;;;;;;;;;;;;;26.26;40.94;100757.38;5068334;28;20309;-72
2023/06/19 00:20:36;;;;;;;;;;;;;;;26.27;41.07;100747.28;5053432;28;19919;-72
2023/06/19 00:23:01;;;;;;;;;;;;;;;26.25;41.04;100761.16;5062933;28;19913;-72
2023/06/19 00:25:26;;;;;;;;;;;;;;;26.25;41.13;100758.44;5070265;28;19979;-72
2023/06/19 00:27:51;;;;;;;;;;;;;;;26.25;41.16;100763.00;5067524;28;19913;-72
2023/06/19 00:30:17;;;;;;;;;;;;;;;26.25;41.20;100766.59;5038669;28;19935;-71
2023/06/19 00:32:49;;;;;;;;;;;;;;;26.24;41.19;100759.47;5075410;28;19938;-71
2023/06/19 00:35:15;;;;;;;;;;;;;;;26.23;41.24;100757.81;5057708;28;19913;-71
2023/06/19 00:37:44;;;;;;;;;;;;;;;26.24;41.05;100761.34;5065337;28;19905;-71
2023/06/19 00:40:10;;;;;;;;;;;;;;;26.23;41.11;100759.69;5066183;28;19917;-71
2023/06/19 00:42:36;;;;;;;;;;;;;;;26.24;41.23;100764.09;5044618;28;19913;-71
2023/06/19 00:45:01;;;;;;;;;;;;;;;26.24;41.02;100770.38;5067251;28;19916;-71
2023/06/19 00:47:26;;;;;;;;;;;;;;;26.23;41.21;100770.59;5065738;28;19916;-71
2023/06/19 00:49:51;;;;;;;;;;;;;;;26.23;41.03;100771.44;5045496;28;19913;-71
2023/06/19 00:52:17;;;;;;;;;;;;;;;26.21;40.94;100776.28;5049129;28;19920;-71
2023/06/19 00:54:42;;;;;;;;;;;;;;;26.21;41.14;100770.81;5055096;28;19913;-71
2023/06/19 00:57:07;;;;;;;;;;;;;;;26.21;41.09;100768.09;5040413;28;19952;-71
2023/06/19 00:59:32;;;;;;;;;;;;;;;26.21;41.14;100773.56;5052743;28;20636;-71
2023/06/19 01:01:58;;;;;;;;;;;;;;;26.21;41.08;100769.97;5061006;28;19952;-71
2023/06/19 01:04:24;;;;;;;;;;;;;;;26.20;41.18;100769.13;5065347;28;19931;-70
2023/06/19 01:06:55;;;;;;;;;;;;;;;26.21;41.04;100769.97;5069225;28;19913;-71
2023/06/19 01:09:20;;;;;;;;;;;;;;;26.19;41.27;100767.47;5060821;28;19920;-71
2023/06/19 01:11:47;;;;;;;;;;;;;;;26.18;41.10;100777.53;5068010;28;19917;-72
2023/06/19 01:14:19;;;;;;;;;;;;;;;26.19;41.13;100772.91;5035160;28;19913;-71
2023/06/19 01:16:44;;;;;;;;;;;;;;;26.19;40.92;100789.28;5046135;28;20290;-71
2023/06/19 01:19:10;;;;;;;;;;;;;;;26.18;41.15;100787.59;5048268;28;19913;-71
2023/06/19 01:21:36;;;;;;;;;;;;;;;26.18;41.15;100788.44;5069798;28;20247;-71
2023/06/19 01:24:02;;;;;;;;;;;;;;;26.17;41.13;100794.94;5038879;28;19927;-72
2023/06/19 01:26:27;;;;;;;;;;;;;;;26.17;41.10;100784.06;5071561;28;19944;-71
2023/06/19 01:28:54;;;;;;;;;;;;;;;26.16;41.17;100790.53;5063534;28;19924;-72
2023/06/19 01:31:25;;;;;;;;;;;;;;;26.16;41.18;100787.81;5041247;28;19934;-72
2023/06/19 01:33:50;;;;;;;;;;;;;;;26.16;41.09;100778.81;5047241;28;19944;-72
2023/06/19 01:36:16;;;;;;;;;;;;;;;26.16;41.23;100781.53;5040195;28;20972;-72
2023/06/19 01:38:41;;;;;;;;;;;;;;;26.16;41.11;100778.81;5069923;28;19916;-72
2023/06/19 01:41:06;;;;;;;;;;;;;;;26.15;41.18;100777.13;5044108;28;19920;-71
2023/06/19 01:43:32;;;;;;;;;;;;;;;26.14;41.10;100784.47;5046406;28;19993;-71
2023/06/19 01:45:57;;;;;;;;;;;;;;;26.14;40.89;100784.47;5046127;28;19976;-72
2023/06/19 01:48:22;;;;;;;;;;;;;;;26.15;41.00;100783.41;5049218;28;19913;-72
2023/06/19 01:50:48;;;;;;;;;;;;;;;26.15;41.01;100786.16;5057490;28;19913;-71
2023/06/19 01:53:14;;;;;;;;;;;;;;;26.14;41.09;100784.47;5050982;28;19948;-72
2023/06/19 01:55:39;;;;;;;;;;;;;;;26.14;41.13;100797.28;5065863;28;19939;-71
2023/06/19 01:58:04;;;;;;;;;;;;;;;26.14;40.91;100795.38;5056226;28;20377;-71
2023/06/19 02:00:30;;;;;;;;;;;;;;;26.14;40.93;100794.56;5073220;28;19920;-71
2023/06/19 02:02:55;;;;;;;;;;;;;;;26.12;41.07;100794.78;5057608;28;19913;-72
2023/06/19 02:05:21;;;;;;;;;;;;;;;26.13;41.30;100798.34;5053634;28;19913;-72
2023/06/19 02:07:46;;;;;;;;;;;;;;;26.13;40.89;100801.91;5065626;28;19944;-72
2023/06/19 02:10:11;;;;;;;;;;;;;;;26.12;41.04;100797.50;5061866;28;20354;-71
2023/06/19 02:12:36;;;;;;;;;;;;;;;26.12;41.02;100800.22;5065866;28;19912;-72
2023/06/19 02:15:01;;;;;;;;;;;;;;;26.11;40.99;100798.53;5064769;28;19928;-71
2023/06/19 02:17:27;;;;;;;;;;;;;;;26.11;40.98;100801.25;5062153;28;19913;-71
2023/06/19 02:19:52;;;;;;;;;;;;;;;26.12;41.11;100800.22;5043013;28;19913;-72
2023/06/19 02:22:17;;;;;;;;;;;;;;;26.11;41.11;100803.16;5069953;28;19924;-71
2023/06/19 02:24:44;;;;;;;;;;;;;;;26.12;41.12;100804.81;5053781;28;20015;-72
2023/06/19 02:27:09;;;;;;;;;;;;;;;26.11;41.00;100805.88;5073247;28;20385;-72
2023/06/19 02:29:34;;;;;;;;;;;;;;;26.09;41.12;100806.13;5057469;28;19918;-72
2023/06/19 02:32:00;;;;;;;;;;;;;;;26.09;40.96;100819.75;5060972;28;19916;-72
2023/06/19 02:34:25;;;;;;;;;;;;;;;26.09;41.15;100819.75;5069362;28;19952;-71
2023/06/19 02:36:50;;;;;;;;;;;;;;;26.09;41.04;100824.34;5059305;28;19913;-71
2023/06/19 02:39:15;;;;;;;;;;;;;;;26.09;41.10;100824.34;5063303;28;19913;-71
2023/06/19 02:41:43;;;;;;;;;;;;;;;26.08;41.10;100828.97;5060992;28;20007;-72
2023/06/19 02:44:08;;;;;;;;;;;;;;;26.09;41.12;100833.34;5065625;28;19963;-72
2023/06/19 02:46:33;;;;;;;;;;;;;;;26.08;41.01;100836.28;5061364;28;19917;-72
2023/06/19 02:48:59;;;;;;;;;;;;;;;26.07;41.13;100838.19;5069593;28;20289;-71
2023/06/19 02:51:24;;;;;;;;;;;;;;;26.08;41.09;100847.19;5059083;28;20584;-71
2023/06/19 02:53:49;;;;;;;;;;;;;;;26.07;40.93;100851.81;5067345;28;19919;-72
2023/06/19 02:56:14;;;;;;;;;;;;;;;26.07;41.16;100857.25;5065214;28;19917;-72
2023/06/19 02:58:39;;;;;;;;;;;;;;;26.07;40.96;100861.88;5057776;28;19920;-71
2023/06/19 03:01:06;;;;;;;;;;;;;;;26.06;40.78;100869.22;5071673;28;19928;-72
2023/06/19 03:03:32;;;;;;;;;;;;;;;26.06;40.87;100869.22;5057306;28;19917;-71
2023/06/19 03:06:00;;;;;;;;;;;;;;;26.05;41.11;100859.38;5064828;28;19919;-71
2023/06/19 03:08:26;;;;;;;;;;;;;;;26.06;40.96;100862.94;5061961;28;19913;-71
2023/06/19 03:10:51;;;;;;;;;;;;;;;26.06;41.01;100866.47;5064491;28;19919;-71
2023/06/19 03:13:16;;;;;;;;;;;;;;;26.05;40.88;100867.53;5050685;28;19913;-71
2023/06/19 03:15:41;;;;;;;;;;;;;;;26.05;41.04;100872.16;5067016;28;19925;-71
2023/06/19 03:18:09;;;;;;;;;;;;;;;26.05;40.99;100874.88;5060685;28;19959;-72
2023/06/19 03:20:34;;;;;;;;;;;;;;;26.04;41.05;100876.78;5062645;28;19923;-72
2023/06/19 03:22:59;;;;;;;;;;;;;;;26.04;41.03;100879.50;5068072;28;19921;-72
2023/06/19 03:25:25;;;;;;;;;;;;;;;26.04;41.05;100887.69;5054159;28;19924;-72
2023/06/19 03:27:50;;;;;;;;;;;;;;;26.03;41.02;100880.53;5076494;28;19919;-72
2023/06/19 03:30:18;;;;;;;;;;;;;;;26.02;40.83;100878.88;5064196;28;20268;-72
2023/06/19 03:32:43;;;;;;;;;;;;;;;26.04;41.11;100886.81;5063711;28;19920;-72
2023/06/19 03:35:10;;;;;;;;;;;;;;;26.03;40.80;100890.59;5070107;28;19953;-72
2023/06/19 03:37:35;;;;;;;;;;;;;;;26.03;40.97;100882.44;5053573;28;19924;-72
2023/06/19 03:40:00;;;;;;;;;;;;;;;26.03;41.04;100883.25;5064504;28;19916;-72
2023/06/19 03:42:25;;;;;;;;;;;;;;;26.02;41.01;100883.50;5067495;28;19912;-72
2023/06/19 03:44:50;;;;;;;;;;;;;;;26.02;41.07;100883.50;5066831;28;19917;-71
2023/06/19 03:47:16;;;;;;;;;;;;;;;26.01;41.12;100893.56;5060318;28;20547;-72
2023/06/19 03:49:41;;;;;;;;;;;;;;;26.01;41.12;100896.28;5072984;28;19981;-72
2023/06/19 03:52:07;;;;;;;;;;;;;;;26.02;41.07;100897.09;5059234;28;19913;-72
2023/06/19 03:54:32;;;;;;;;;;;;;;;26.01;40.84;100896.28;5072230;28;19926;-72
2023/06/19 03:56:57;;;;;;;;;;;;;;;26.00;41.13;100896.47;5067464;28;19913;-72
2023/06/19 03:59:22;;;;;;;;;;;;;;;26.00;40.98;100907.38;5060494;28;20350;-72
2023/06/19 04:01:48;;;;;;;;;;;;;;;26.00;41.11;100907.38;5071245;28;20282;-72
2023/06/19 04:04:13;;;;;;;;;;;;;;;25.99;41.07;100909.25;5063038;28;19920;-72
2023/06/19 04:06:38;;;;;;;;;;;;;;;26.00;40.96;100912.81;5066055;28;19919;-72
2023/06/19 04:09:04;;;;;;;;;;;;;;;25.99;41.17;100911.16;5067478;28;19921;-72
2023/06/19 04:11:29;;;;;;;;;;;;;;;25.99;41.04;100913.88;5069657;28;19917;-72
2023/06/19 04:13:54;;;;;;;;;;;;;;;25.99;41.17;100908.44;5060121;28;19913;-72
2023/06/19 04:16:20;;;;;;;;;;;;;;;25.97;41.14;100911.38;5071889;28;19982;-72
2023/06/19 04:18:47;;;;;;;;;;;;;;;25.98;41.16;100909.50;5062399;28;21637;-72
2023/06/19 04:21:13;;;;;;;;;;;;;;;25.98;41.00;100913.03;5062470;28;19912;-71
2023/06/19 04:23:39;;;;;;;;;;;;;;;25.97;41.05;100914.09;5064326;28;19917;-72
2023/06/19 04:26:04;;;;;;;;;;;;;;;25.97;41.18;100913.28;5057705;28;19924;-71
2023/06/19 04:28:29;;;;;;;;;;;;;;;25.97;40.95;100926.91;5073499;28;19920;-71
2023/06/19 04:30:59;;;;;;;;;;;;;;;25.97;40.97;100922.28;5051334;28;19919;-71
2023/06/19 04:33:25;;;;;;;;;;;;;;;25.97;41.21;100926.91;5073702;28;19917;-71
2023/06/19 04:35:50;;;;;;;;;;;;;;;25.96;40.98;100925.22;5068724;28;19937;-71
2023/06/19 04:38:15;;;;;;;;;;;;;;;25.96;41.18;100923.34;5067133;28;20074;-71
2023/06/19 04:40:43;;;;;;;;;;;;;;;25.96;41.15;100927.94;5057943;28;20392;-71
2023/06/19 04:43:08;;;;;;;;;;;;;;;25.94;41.00;100928.16;5067896;28;19951;-71
2023/06/19 04:45:33;;;;;;;;;;;;;;;25.94;41.14;100928.16;5065502;28;19927;-71
2023/06/19 04:48:02;;;;;;;;;;;;;;;25.95;40.92;100940.72;5052934;28;19975;-71
2023/06/19 04:50:27;;;;;;;;;;;;;;;25.95;41.02;100931.69;5071530;28;19912;-71
2023/06/19 04:52:53;;;;;;;;;;;;;;;25.93;41.16;100940.94;5056574;28;19913;-71
2023/06/19 04:55:18;;;;;;;;;;;;;;;25.93;41.18;100938.22;5069711;28;19917;-71
2023/06/19 04:57:43;;;;;;;;;;;;;;;25.93;41.12;100946.38;5064306;28;19917;-71
2023/06/19 05:00:10;;;;;;;;;;;;;;;25.93;41.04;100949.09;5061244;28;19959;-71
2023/06/19 05:02:35;;;;;;;;;;;;;;;25.93;41.22;100943.66;5069139;28;19999;-72
2023/06/19 05:05:02;;;;;;;;;;;;;;;25.93;40.99;100945.56;5051758;28;19963;-71
2023/06/19 05:07:29;;;;;;;;;;;;;;;25.92;41.07;100949.34;5040610;28;19920;-71
2023/06/19 05:09:54;;;;;;;;;;;;;;;25.92;40.98;100950.16;5067963;28;19912;-71
2023/06/19 05:12:19;;;;;;;;;;;;;;;25.91;41.28;100948.50;5067627;28;19920;-71
2023/06/19 05:14:44;;;;;;;;;;;;;;;25.91;41.09;100951.22;5057334;28;19929;-71
2023/06/19 05:17:12;;;;;;;;;;;;;;;25.91;41.09;100955.81;5074195;28;19917;-71
2023/06/19 05:19:37;;;;;;;;;;;;;;;25.89;41.00;100958.75;5059333;28;19917;-71
2023/06/19 05:22:02;;;;;;;;;;;;;;;25.90;41.14;100962.31;5064961;28;19934;-71
2023/06/19 05:24:28;;;;;;;;;;;;;;;25.91;41.11;100963.97;5066311;28;19924;-71
2023/06/19 05:26:53;;;;;;;;;;;;;;;25.89;40.99;100975.09;5059052;28;19913;-71
2023/06/19 05:29:18;;;;;;;;;;;;;;;25.90;41.29;100981.38;5067535;28;19913;-71
2023/06/19 05:31:43;;;;;;;;;;;;;;;25.89;41.32;100979.72;5062406;28;19921;-71
2023/06/19 05:34:09;;;;;;;;;;;;;;;25.88;41.10;100973.44;5063828;28;19913;-71
2023/06/19 05:36:34;;;;;;;;;;;;;;;25.88;41.33;100981.59;5064268;28;19975;-71
2023/06/19 05:38:59;;;;;;;;;;;;;;;25.88;41.24;100984.34;5068420;28;19919;-72
2023/06/19 05:41:24;;;;;;;;;;;;;;;25.87;41.28;100979.94;5055257;28;20425;-72
2023/06/19 05:43:49;;;;;;;;;;;;;;;25.88;41.21;100991.66;5071375;28;19920;-72
2023/06/19 05:46:14;;;;;;;;;;;;;;;25.87;41.13;100989.97;5063084;28;19913;-72
2023/06/19 05:48:40;;;;;;;;;;;;;;;25.87;41.10;100990.84;5057192;28;19966;-71
2023/06/19 05:51:05;;;;;;;;;;;;;;;25.87;41.39;100992.69;5057716;28;19917;-71
2023/06/19 05:53:31;;;;;;;;;;;;;;;25.86;41.33;101000.03;5056724;28;19913;-71
2023/06/19 05:55:58;;;;;;;;;;;;;;;25.87;41.27;100992.69;5050060;28;19917;-71
2023/06/19 05:58:25;;;;;;;;;;;;;;;25.86;41.26;101001.94;5064326;28;20373;-71
2023/06/19 06:00:50;;;;;;;;;;;;;;;25.85;41.30;100992.91;5062949;28;19920;-71
2023/06/19 06:03:15;;;;;;;;;;;;;;;25.85;41.28;100998.38;5062836;28;19913;-71
2023/06/19 06:05:41;;;;;;;;;;;;;;;25.84;41.26;100998.59;5066124;28;19920;-71
2023/06/19 06:08:07;;;;;;;;;;;;;;;25.85;41.35;101005.72;5058467;28;19914;-71
2023/06/19 06:10:32;;;;;;;;;;;;;;;25.84;41.19;101010.31;5067801;28;19917;-72
2023/06/19 06:12:57;;;;;;;;;;;;;;;25.83;41.31;101016.81;5065861;28;19924;-72
2023/06/19 06:15:23;;;;;;;;;;;;;;;25.84;41.42;101023.94;5051734;28;19921;-72
2023/06/19 06:17:48;;;;;;;;;;;;;;;25.84;41.25;101026.66;5074072;28;19912;-72
2023/06/19 06:20:13;;;;;;;;;;;;;;;25.83;41.27;101027.72;5058949;28;19949;-71
2023/06/19 06:22:39;;;;;;;;;;;;;;;25.84;41.37;101034.84;5034454;28;19912;-72
2023/06/19 06:25:04;;;;;;;;;;;;;;;25.83;41.32;101030.44;5047945;28;20002;-72
2023/06/19 06:27:30;;;;;;;;;;;;;;;25.82;41.53;101036.91;5061365;28;19936;-71
2023/06/19 06:29:55;;;;;;;;;;;;;;;25.82;41.44;101036.91;5064544;28;19920;-72
2023/06/19 06:32:20;;;;;;;;;;;;;;;25.82;41.60;101041.53;5063860;28;20389;-71
2023/06/19 06:34:45;;;;;;;;;;;;;;;25.82;41.39;101041.53;5062213;28;19913;-71
2023/06/19 06:37:11;;;;;;;;;;;;;;;25.82;41.26;101036.09;5062373;28;19973;-71
2023/06/19 06:39:36;;;;;;;;;;;;;;;25.82;41.38;101044.25;5068883;28;19923;-72
2023/06/19 06:42:02;;;;;;;;;;;;;;;25.81;41.50;101046.16;5055083;28;19921;-73
2023/06/19 06:44:27;;;;;;;;;;;;;;;25.81;41.46;101048.03;5069576;28;19924;-71
2023/06/19 06:46:52;;;;;;;;;;;;;;;25.81;41.50;101051.59;5062878;28;19948;-72
2023/06/19 06:49:17;;;;;;;;;;;;;;;25.81;41.56;101051.59;5057131;28;19971;-71
2023/06/19 06:51:42;;;;;;;;;;;;;;;25.80;41.49;101060.81;5068648;28;20350;-72
2023/06/19 06:54:08;;;;;;;;;;;;;;;25.80;41.60;101055.38;5058260;28;19913;-71
2023/06/19 06:56:33;;;;;;;;;;;;;;;25.80;41.57;101058.09;5062081;28;20003;-71
2023/06/19 06:58:58;;;;;;;;;;;;;;;25.81;41.79;101051.59;5062309;28;19917;-72
2023/06/19 07:01:23;;;;;;;;;;;;;;;25.80;41.43;101062.72;5070685;28;19917;-71
2023/06/19 07:03:48;;;;;;;;;;;;;;;25.80;41.49;101068.16;5065743;28;19924;-72
2023/06/19 07:06:13;;;;;;;;;;;;;;;25.80;41.52;101063.53;5072116;28;19913;-71
2023/06/19 07:08:40;;;;;;;;;;;;;;;25.79;41.61;101067.31;5062258;28;20302;-71
2023/06/19 07:11:06;;;;;;;;;;;;;;;25.78;41.61;101076.53;5056239;28;19919;-72
2023/06/19 07:13:31;;;;;;;;;;;;;;;25.79;41.68;101075.50;5069491;28;19942;-72
2023/06/19 07:15:58;;;;;;;;;;;;;;;25.78;41.56;101076.53;5057942;28;19921;-71
2023/06/19 07:18:23;;;;;;;;;;;;;;;25.78;41.46;101070.25;5077129;28;19912;-71
2023/06/19 07:20:48;;;;;;;;;;;;;;;25.78;41.59;101081.97;5061160;28;19917;-71
2023/06/19 07:23:13;;;;;;;;;;;;;;;25.37;41.51;101011.38;5066730;28;19917;-72
2023/06/19 07:25:39;;;;;;;;;;;;;;;25.78;41.68;101081.13;5067521;28;20457;-71
2023/06/19 07:28:04;;;;;;;;;;;;;;;25.77;41.40;101085.75;5067033;28;19923;-71
2023/06/19 07:30:29;;;;;;;;;;;;;;;25.77;41.63;101080.31;5052237;28;19966;-71
2023/06/19 07:32:54;;;;;;;;;;;;;;;25.77;41.64;101084.91;5070035;28;20015;-72
2023/06/19 07:35:20;;;;;;;;;;;;;;;25.77;41.81;101088.47;5065406;28;19934;-72
2023/06/19 07:37:45;;;;;;;;;;;;;;;25.77;41.65;101093.09;5063397;28;19924;-70
2023/06/19 07:40:10;;;;;;;;;;;;;;;25.76;41.58;101094.09;5073191;28;19913;-71
2023/06/19 07:42:35;;;;;;;;;;;;;;;25.76;41.86;101097.66;5056307;28;19976;-71
2023/06/19 07:45:01;;;;;;;;;;;;;;;25.76;41.81;101102.28;5057967;28;19924;-72
2023/06/19 07:47:26;;;;;;;;;;;;;;;25.76;41.69;101100.38;5064915;28;19917;-72
2023/06/19 07:49:51;;;;;;;;;;;;;;;25.76;41.74;101116.72;5060826;28;19924;-71
2023/06/19 07:52:16;;;;;;;;;;;;;;;25.74;41.81;101116.09;5069309;28;19913;-71
2023/06/19 07:54:50;;;;;;;;;;;;;;;25.76;41.78;101126.78;5064622;28;19923;-71
2023/06/19 07:57:15;;;;;;;;;;;;;;;25.75;42.06;101125.94;5046249;28;19908;-71
2023/06/19 07:59:40;;;;;;;;;;;;;;;25.76;41.82;101135.78;5067831;28;19934;-72
2023/06/19 08:02:05;;;;;;;;;;;;;;;25.75;41.72;101125.94;5067750;28;19977;-72
2023/06/19 08:04:30;;;;;;;;;;;;;;;25.75;41.73;101133.28;5057105;28;19917;-71
2023/06/19 08:06:56;;;;;;;;;;;;;;;25.75;41.71;101128.69;5073411;28;19963;-71
2023/06/19 08:09:21;;;;;;;;;;;;;;;25.75;41.77;101134.13;5060435;28;20393;-71
2023/06/19 08:11:47;;;;;;;;;;;;;;;25.75;41.71;101141.47;5070886;28;19924;-72
2023/06/19 08:14:12;;;;;;;;;;;;;;;25.76;41.70;101143.97;5068195;28;20321;-70
2023/06/19 08:16:37;;;;;;;;;;;;;;;25.76;41.99;101148.56;5059451;28;19931;-70
2023/06/19 08:19:02;;;;;;;;;;;;;;;25.76;41.89;101146.69;5070916;28;19913;-70
2023/06/19 08:21:27;;;;;;;;;;;;;;;25.77;41.83;101148.38;5061862;28;19968;-70
2023/06/19 08:23:52;;;;;;;;;;;;;;;25.77;41.58;101158.44;5064416;28;19931;-71
2023/06/19 08:26:18;;;;;;;;;;;;;;;25.76;41.71;101154.84;5066391;28;19920;-71
2023/06/19 08:28:44;;;;;;;;;;;;;;;25.76;41.72;101146.69;5068167;28;19917;-70
2023/06/19 08:31:09;;;;;;;;;;;;;;;25.77;41.93;101144.84;5060388;28;19912;-71
2023/06/19 08:33:35;;;;;;;;;;;;;;;25.77;41.77;101142.94;5071473;28;19973;-71
2023/06/19 08:36:00;;;;;;;;;;;;;;;25.78;41.63;101151.94;5044913;28;19917;-71
2023/06/19 08:38:25;;;;;;;;;;;;;;;25.77;41.68;101151.13;5059863;28;19912;-72
2023/06/19 08:40:50;;;;;;;;;;;;;;;25.78;41.88;101152.78;5071578;28;19913;-71
2023/06/19 08:43:15;;;;;;;;;;;;;;;25.79;41.52;101164.53;5049242;28;20406;-71
2023/06/19 08:45:41;;;;;;;;;;;;;;;25.78;41.80;101160.94;5070838;28;19967;-71
2023/06/19 08:48:08;;;;;;;;;;;;;;;25.78;41.57;101158.22;5063575;28;20589;-71
2023/06/19 08:50:33;;;;;;;;;;;;;;;25.79;41.71;101159.09;5052910;28;19920;-71
2023/06/19 08:52:58;;;;;;;;;;;;;;;25.79;41.75;101170.00;5048992;28;19917;-71
2023/06/19 08:55:24;;;;;;;;;;;;;;;25.80;41.79;101171.66;5052542;28;19949;-71
2023/06/19 08:57:50;;;;;;;;;;;;;;;25.79;41.74;101161.81;5040540;28;19947;-71
2023/06/19 09:00:25;;;;;;;;;;;;;;;25.80;41.78;101164.31;5051169;28;19927;-71
2023/06/19 09:02:50;;;;;;;;;;;;;;;25.80;41.63;101168.94;5065826;28;19917;-71
2023/06/19 09:05:16;;;;;;;;;;;;;;;25.81;41.72;101176.06;5056471;28;19925;-71
2023/06/19 09:07:42;;;;;;;;;;;;;;;25.81;41.46;101189.66;5072354;28;19916;-71
2023/06/19 09:10:17;;;;;;;;;;;;;;;25.81;41.79;101190.50;5056139;28;19920;-71
2023/06/19 09:12:44;;;;;;;;;;;;;;;25.82;41.69;101185.91;5068178;28;19944;-71
2023/06/19 09:15:13;;;;;;;;;;;;;;;25.82;41.69;101196.78;5063436;28;19921;-71
2023/06/19 09:17:38;;;;;;;;;;;;;;;25.82;41.68;101200.34;5046224;28;19917;-72
2023/06/19 09:20:05;;;;;;;;;;;;;;;25.82;41.63;101189.47;5067977;28;20388;-71
2023/06/19 09:22:30;;;;;;;;;;;;;;;25.83;41.78;101190.31;5063057;28;19917;-72
2023/06/19 09:24:59;;;;;;;;;;;;;;;25.83;41.77;101201.22;5062256;28;19924;-71
2023/06/19 09:27:24;;;;;;;;;;;;;;;25.83;41.84;101193.88;5067471;28;19964;-71
2023/06/19 09:29:50;;;;;;;;;;;;;;;25.84;41.85;101198.28;5049288;28;19917;-72
2023/06/19 09:32:22;;;;;;;;;;;;;;;25.84;41.73;101197.44;5053561;28;20409;-70
2023/06/19 09:34:49;;;;;;;;;;;;;;;25.84;41.84;101209.16;5073804;28;19914;-71
2023/06/19 09:37:14;;;;;;;;;;;;;;;25.86;41.88;101203.50;5057182;28;19967;-72
2023/06/19 09:39:40;;;;;;;;;;;;;;;25.86;41.85;101204.34;5051903;28;19913;-70
2023/06/19 09:42:09;;;;;;;;;;;;;;;25.86;41.73;101201.63;5053214;28;19924;-71
2023/06/19 09:44:43;;;;;;;;;;;;;;;25.87;41.82;101205.16;5058427;28;19924;-71
2023/06/19 09:47:16;;;;;;;;;;;;;;;25.87;41.90;101200.59;5066490;28;19923;-71
2023/06/19 09:49:42;;;;;;;;;;;;;;;25.88;42.00;101207.72;5047140;28;19971;-71
2023/06/19 09:52:07;;;;;;;;;;;;;;;25.88;41.92;101207.72;5043163;28;19913;-72
2023/06/19 09:54:32;;;;;;;;;;;;;;;25.88;41.86;101207.72;5068314;28;19955;-71
2023/06/19 09:56:58;;;;;;;;;;;;;;;25.89;41.94;101217.56;5066871;28;19973;-71
2023/06/19 09:59:23;;;;;;;;;;;;;;;25.89;41.84;101214.81;5054161;28;19917;-72
2023/06/19 10:01:48;;;;;;;;;;;;;;;25.90;41.98;101221.94;5074815;28;19912;-72
2023/06/19 10:04:13;;;;;;;;;;;;;;;25.91;41.91;101233.69;5058811;28;19927;-72
2023/06/19 10:06:45;;;;;;;;;;;;;;;25.92;42.02;101233.50;5065314;28;19991;-72
2023/06/19 10:09:10;;;;;;;;;;;;;;;25.92;42.00;101241.66;5066094;28;20374;-72
2023/06/19 10:11:51;;;;;;;;;;;;;;;25.93;41.80;101237.06;5057285;28;19919;-71
2023/06/19 10:14:18;;;;;;;;;;;;;;;25.93;41.91;101237.06;5072740;28;19923;-72
2023/06/19 10:16:43;;;;;;;;;;;;;;;25.93;41.87;101237.88;5065237;28;20004;-72
2023/06/19 10:19:13;;;;;;;;;;;;;;;25.95;41.71;101243.13;5060728;28;19916;-71
2023/06/19 10:21:48;;;;;;;;;;;;;;;25.95;41.99;101234.09;5066908;28;19985;-71
2023/06/19 10:24:19;;;;;;;;;;;;;;;25.95;42.01;101240.38;5062797;28;19916;-71
2023/06/19 10:26:54;;;;;;;;;;;;;;;25.97;41.77;101232.88;5047761;28;19913;-71
2023/06/19 10:29:20;;;;;;;;;;;;;;;25.97;41.98;101238.31;5068241;28;19913;-73
2023/06/19 10:31:46;;;;;;;;;;;;;;;25.98;41.89;101245.44;5057023;28;19917;-72
2023/06/19 10:34:12;;;;;;;;;;;;;;;25.99;41.81;101247.09;5066100;28;19919;-72
2023/06/19 10:36:37;;;;;;;;;;;;;;;25.99;42.07;101249.81;5069135;28;19976;-73
2023/06/19 10:39:02;;;;;;;;;;;;;;;26.01;41.92;101245.03;5064403;28;19952;-72
2023/06/19 10:41:27;;;;;;;;;;;;;;;26.02;41.92;101254.03;5071850;28;19968;-73
2023/06/19 10:43:57;;;;;;;;;;;;;;;26.03;41.70;101250.25;5066587;28;19936;-72
2023/06/19 10:46:23;;;;;;;;;;;;;;;26.04;41.97;101257.38;5063824;28;19963;-72
2023/06/19 10:48:48;;;;;;;;;;;;;;;26.04;41.93;101257.38;5068790;28;19916;-72
2023/06/19 10:51:18;;;;;;;;;;;;;;;26.05;41.80;101249.00;5070804;28;19913;-72
2023/06/19 10:53:43;;;;;;;;;;;;;;;26.06;41.98;101245.22;5061136;28;19913;-72
2023/06/19 10:56:08;;;;;;;;;;;;;;;26.07;41.92;101241.47;5071584;28;20011;-73
2023/06/19 10:58:33;;;;;;;;;;;;;;;26.09;41.81;101230.38;5067927;28;20268;-72
2023/06/19 11:00:58;;;;;;;;;;;;;;;26.09;41.74;101231.19;5056949;28;19924;-72
2023/06/19 11:03:23;;;;;;;;;;;;;;;26.11;41.78;101240.00;5071623;28;19921;-72
2023/06/19 11:05:49;;;;;;;;;;;;;;;26.11;42.15;101234.53;5041361;28;19984;-72
2023/06/19 11:08:18;;;;;;;;;;;;;;;26.13;41.99;101242.53;5055191;28;19918;-72
2023/06/19 11:10:43;;;;;;;;;;;;;;;26.13;41.90;101251.53;5062730;28;19935;-72
2023/06/19 11:13:12;;;;;;;;;;;;;;;26.15;42.02;101243.16;5067155;28;19913;-72
2023/06/19 11:15:38;;;;;;;;;;;;;;;26.15;42.00;101235.81;5069870;28;19925;-72
2023/06/19 11:18:03;;;;;;;;;;;;;;;26.17;41.87;101247.34;5066824;28;19919;-72
2023/06/19 11:20:28;;;;;;;;;;;;;;;26.18;42.01;101242.72;5062698;28;20331;-72
2023/06/19 11:22:54;;;;;;;;;;;;;;;26.20;41.96;101242.50;5074364;28;20303;-72
2023/06/19 11:25:20;;;;;;;;;;;;;;;26.21;42.01;101242.31;5047722;28;19917;-72
2023/06/19 11:27:51;;;;;;;;;;;;;;;26.22;41.80;101241.28;5062431;28;19951;-72
2023/06/19 11:30:16;;;;;;;;;;;;;;;26.23;41.95;101234.75;5074435;28;19939;-72
2023/06/19 11:32:44;;;;;;;;;;;;;;;26.25;41.95;101240.84;5040913;28;19913;-72
2023/06/19 11:35:11;;;;;;;;;;;;;;;26.27;41.76;101243.38;5070908;28;19923;-72
2023/06/19 11:37:36;;;;;;;;;;;;;;;26.27;41.87;101236.03;5064601;28;19913;-73
2023/06/19 11:40:04;;;;;;;;;;;;;;;26.29;41.93;101231.19;5061373;28;19924;-71
2023/06/19 11:42:29;;;;;;;;;;;;;;;26.31;41.94;101240.00;5069008;28;19939;-71
2023/06/19 11:45:06;;;;;;;;;;;;;;;26.31;41.97;101236.44;5068570;28;19959;-71
2023/06/19 11:47:31;;;;;;;;;;;;;;;26.32;41.87;101238.13;5024919;28;19913;-72
2023/06/19 11:49:57;;;;;;;;;;;;;;;26.34;42.01;101234.16;5070240;28;19916;-71
2023/06/19 11:52:22;;;;;;;;;;;;;;;26.36;41.89;101242.94;5045474;28;19920;-72
2023/06/19 11:54:47;;;;;;;;;;;;;;;26.39;41.72;101244.41;5062110;28;19912;-71
2023/06/19 11:57:13;;;;;;;;;;;;;;;26.40;41.96;101248.81;5074356;28;19920;-73
2023/06/19 11:59:38;;;;;;;;;;;;;;;26.42;41.85;101244.84;5051871;28;19984;-72
2023/06/19 12:02:04;;;;;;;;;;;;;;;26.45;41.85;101242.75;5067268;28;19917;-72
2023/06/19 12:04:29;;;;;;;;;;;;;;;26.47;41.68;101240.66;5066727;28;19968;-72
2023/06/19 12:06:54;;;;;;;;;;;;;;;26.48;41.95;101247.78;5062676;28;19924;-72
2023/06/19 12:09:19;;;;;;;;;;;;;;;26.48;41.80;101245.91;5071048;28;20001;-72
2023/06/19 12:11:44;;;;;;;;;;;;;;;26.50;41.82;101253.88;5048939;28;20388;-72
2023/06/19 12:14:13;;;;;;;;;;;;;;;26.52;41.82;101243.59;5063076;28;20382;-72
2023/06/19 12:16:38;;;;;;;;;;;;;;;26.53;41.93;101248.84;5053668;28;19929;-71
2023/06/19 12:19:03;;;;;;;;;;;;;;;26.55;41.69;101237.69;5071026;28;19962;-72
2023/06/19 12:21:28;;;;;;;;;;;;;;;26.56;41.80;101240.22;5055678;28;19913;-73
2023/06/19 12:23:53;;;;;;;;;;;;;;;26.57;41.63;101244.63;5075447;28;20396;-73
2023/06/19 12:26:19;;;;;;;;;;;;;;;26.59;41.82;101247.13;5053141;28;19913;-73
2023/06/19 12:28:44;;;;;;;;;;;;;;;26.60;41.81;101241.50;5056313;28;19917;-72